createdAt,value
2019-03-17T17:07:18.478Z,19.30
2019-03-17T17:14:56.082Z,21.30
2019-03-17T17:20:39.473Z,21.30
2019-03-17T17:27:36.329Z,19.50
2019-03-17T17:30:12.500Z,18.70
2019-03-17T17:32:42.815Z,18.30
2019-03-17T17:35:13.545Z,18.00
2019-03-17T17:37:43.770Z,17.70
2019-03-17T17:40:19.583Z,17.60
2019-03-17T17:42:49.572Z,17.50
2019-03-17T17:45:40.705Z,17.30
2019-03-17T17:48:10.974Z,17.20
2019-03-17T17:50:44.137Z,17.10
2019-03-17T17:53:14.237Z,17.10
2019-03-17T17:55:44.799Z,16.90
2019-03-17T17:58:14.866Z,16.70
2019-03-17T18:00:46.940Z,16.70
2019-03-17T18:03:17.495Z,16.60
2019-03-17T18:05:47.991Z,16.60
2019-03-17T18:08:18.054Z,16.60
2019-03-17T18:10:48.232Z,16.70
2019-03-17T18:13:18.243Z,16.70
2019-03-17T18:15:48.533Z,16.70
2019-03-17T18:18:18.755Z,16.70
2019-03-17T18:20:49.183Z,16.70
2019-03-17T18:23:19.512Z,16.60
2019-03-17T18:25:49.729Z,16.40
2019-03-17T18:28:19.950Z,16.30
2019-03-17T18:30:50.171Z,16.30
2019-03-17T18:33:20.293Z,16.30
2019-03-17T18:35:52.151Z,16.40
2019-03-17T18:41:11.645Z,16.30
2019-03-17T18:43:41.862Z,16.30
2019-03-17T18:46:12.291Z,16.40
2019-03-17T18:48:42.306Z,16.50
2019-03-17T18:51:12.596Z,16.50
2019-03-17T18:53:42.954Z,16.30
2019-03-17T18:56:13.176Z,16.30
2019-03-17T18:58:43.500Z,16.30
2019-03-17T19:01:13.827Z,16.20
2019-03-17T19:03:44.045Z,16.20
2019-03-17T19:06:14.165Z,16.10
2019-03-17T19:08:44.489Z,16.10
2019-03-17T19:11:15.122Z,16.10
2019-03-17T19:13:45.445Z,16.00
2019-03-17T19:16:15.462Z,16.00
2019-03-17T19:18:45.583Z,15.90
2019-03-17T19:21:17.543Z,15.80
2019-03-17T19:23:47.773Z,15.80
2019-03-17T19:26:17.889Z,15.70
2019-03-17T19:28:48.006Z,15.70
2019-03-17T19:31:18.230Z,15.70
2019-03-17T19:33:48.448Z,15.70
2019-03-17T19:36:18.688Z,15.70
2019-03-17T19:38:48.793Z,15.70
2019-03-17T19:41:22.086Z,15.60
2019-03-17T19:43:52.210Z,15.60
2019-03-17T19:46:22.835Z,15.50
2019-03-17T19:48:53.059Z,15.50
2019-03-17T19:51:23.591Z,15.40
2019-03-17T19:53:53.919Z,15.40
2019-03-17T19:56:24.035Z,15.40
2019-03-17T19:58:54.357Z,15.40
2019-03-17T20:01:24.681Z,15.40
2019-03-17T20:03:55.129Z,15.40
2019-03-17T20:06:25.429Z,15.40
2019-03-17T20:08:56.636Z,15.30
2019-03-17T20:11:28.330Z,15.30
2019-03-17T20:14:00.803Z,15.30
2019-03-17T20:16:32.356Z,15.30
2019-03-17T20:19:02.480Z,15.40
2019-03-17T20:21:33.106Z,15.30
2019-03-17T20:24:23.531Z,15.30
2019-03-17T20:26:53.831Z,15.20
2019-03-17T20:29:29.011Z,15.40
2019-03-17T20:32:00.514Z,15.30
2019-03-17T20:34:30.840Z,15.30
2019-03-17T20:37:01.566Z,15.20
2019-03-17T20:39:32.204Z,15.20
2019-03-17T20:42:04.474Z,15.10
2019-03-17T20:44:34.905Z,15.10
2019-03-17T20:47:06.145Z,15.00
2019-03-17T20:49:39.324Z,15.10
2019-03-17T20:52:09.257Z,15.10
2019-03-17T20:54:40.908Z,15.00
2019-03-17T20:57:11.231Z,15.00
2019-03-17T20:59:41.351Z,14.90
2019-03-17T21:02:13.211Z,15.00
2019-03-17T21:04:43.439Z,15.00
2019-03-17T21:07:15.191Z,15.00
2019-03-17T21:09:45.514Z,15.00
2019-03-17T21:12:15.634Z,14.90
2019-03-17T21:14:45.753Z,14.90
2019-03-17T21:17:15.975Z,14.90
2019-03-17T21:19:47.323Z,14.80
2019-03-17T21:22:17.752Z,14.90
2019-03-17T21:24:47.975Z,14.80
2019-03-17T21:27:18.193Z,14.80
2019-03-17T21:29:49.965Z,14.80
2019-03-17T21:32:19.971Z,14.70
2019-03-17T21:34:50.292Z,14.90
2019-03-17T21:37:20.310Z,14.80
2019-03-17T21:39:50.646Z,14.90
2019-03-17T21:42:24.337Z,14.80
2019-03-17T21:44:54.564Z,14.90
2019-03-17T21:47:24.885Z,14.90
2019-03-17T21:49:57.769Z,14.90
2019-03-17T21:52:32.292Z,15.00
2019-03-17T21:55:02.515Z,14.90
2019-03-17T21:57:33.514Z,14.80
2019-03-17T22:00:04.385Z,14.70
2019-03-17T22:02:34.519Z,14.60
2019-03-17T22:05:04.628Z,14.60
2019-03-17T22:07:34.850Z,14.50
2019-03-17T22:10:07.899Z,14.60
2019-03-17T22:12:38.569Z,14.60
2019-03-17T22:15:11.862Z,14.60
2019-03-17T22:17:42.234Z,14.50
2019-03-17T22:20:13.421Z,14.60
2019-03-17T22:22:46.096Z,14.50
2019-03-17T22:25:16.962Z,14.50
2019-03-17T22:28:08.621Z,14.40
2019-03-17T22:30:36.029Z,14.40
2019-03-17T22:33:06.150Z,14.50
2019-03-17T22:35:36.370Z,14.40
2019-03-17T22:38:06.694Z,14.30
2019-03-17T22:40:38.554Z,14.30
2019-03-17T22:43:08.572Z,14.30
2019-03-17T22:45:38.590Z,14.40
2019-03-17T22:48:13.008Z,14.40
2019-03-17T22:50:43.332Z,14.30
2019-03-17T22:53:13.554Z,14.30
2019-03-17T22:55:49.101Z,14.30
2019-03-17T22:58:21.750Z,14.40
2019-03-17T23:00:52.003Z,14.40
2019-03-17T23:03:25.212Z,14.40
2019-03-17T23:05:55.521Z,14.50
2019-03-17T23:08:25.641Z,14.50
2019-03-17T23:10:56.152Z,14.50
2019-03-17T23:13:26.285Z,14.50
2019-03-17T23:15:56.507Z,14.40
2019-03-17T23:18:26.626Z,14.30
2019-03-17T23:20:56.848Z,14.30
2019-03-17T23:23:26.968Z,14.20
2019-03-17T23:26:16.447Z,14.20
2019-03-17T23:28:47.174Z,14.20
2019-03-17T23:31:17.398Z,14.20
2019-03-17T23:33:47.825Z,14.30
2019-03-17T23:36:18.146Z,14.20
2019-03-17T23:38:48.266Z,14.20
2019-03-17T23:41:18.901Z,14.20
2019-03-17T23:43:51.781Z,14.10
2019-03-17T23:46:21.902Z,14.10
2019-03-17T23:48:53.762Z,14.10
2019-03-17T23:51:24.086Z,14.10
2019-03-17T23:53:54.308Z,14.00
2019-03-17T23:56:24.631Z,14.00
2019-03-17T23:58:55.162Z,14.00
